createdAt,value
2018-07-31T00:02:04.594Z,19.43
2018-07-31T00:04:32.851Z,16.83
2018-07-31T00:07:01.065Z,16.13
2018-07-31T00:09:30.718Z,17.10
2018-07-31T00:11:59.059Z,17.87
2018-07-31T00:14:27.372Z,19.63
2018-07-31T00:16:55.697Z,17.33
2018-07-31T00:19:24.032Z,18.57
2018-07-31T00:21:52.580Z,18.07
2018-07-31T00:24:20.867Z,20.27
2018-07-31T00:26:49.819Z,17.77
2018-07-31T00:29:19.178Z,17.73
2018-07-31T00:31:47.463Z,18.07
2018-07-31T00:34:15.888Z,18.57
2018-07-31T00:36:44.103Z,18.23
2018-07-31T00:39:12.854Z,17.53
2018-07-31T00:41:41.788Z,17.57
2018-07-31T00:44:12.452Z,17.60
2018-07-31T00:46:40.867Z,17.30
2018-07-31T00:49:09.176Z,19.80
2018-07-31T00:51:37.550Z,18.07
2018-07-31T00:54:05.913Z,18.07
2018-07-31T00:56:34.222Z,17.13
2018-07-31T00:59:02.565Z,18.07
2018-07-31T01:01:30.887Z,17.87
2018-07-31T01:04:00.310Z,19.17
2018-07-31T01:06:32.738Z,17.93
2018-07-31T01:09:01.065Z,18.83
2018-07-31T01:11:29.345Z,18.63
2018-07-31T01:13:57.753Z,18.97
2018-07-31T01:16:26.080Z,18.37
2018-07-31T01:18:54.571Z,19.07
2018-07-31T01:21:22.969Z,20.60
2018-07-31T01:23:51.543Z,20.57
2018-07-31T01:26:19.945Z,21.17
2018-07-31T01:28:48.313Z,20.47
2018-07-31T01:31:16.622Z,23.60
2018-07-31T01:33:44.902Z,20.67
2018-07-31T01:36:13.403Z,20.40
2018-07-31T01:38:41.712Z,20.83
2018-07-31T01:41:10.073Z,18.97
2018-07-31T01:43:38.528Z,20.20
2018-07-31T01:46:06.845Z,21.23
2018-07-31T01:48:35.180Z,20.80
2018-07-31T01:51:03.510Z,20.47
2018-07-31T01:53:31.848Z,20.43
2018-07-31T01:56:00.192Z,19.63
2018-07-31T01:58:28.458Z,21.10
2018-07-31T02:00:56.794Z,21.40
2018-07-31T02:03:25.082Z,20.07
2018-07-31T02:05:53.361Z,19.97
2018-07-31T02:08:21.666Z,21.57
2018-07-31T02:10:50.006Z,21.00
2018-07-31T02:13:19.084Z,22.83
2018-07-31T02:15:47.516Z,20.43
2018-07-31T02:18:15.945Z,20.77
2018-07-31T02:20:44.261Z,22.27
2018-07-31T02:23:12.795Z,20.57
2018-07-31T02:25:41.747Z,21.53
2018-07-31T02:28:10.162Z,21.23
2018-07-31T02:30:38.463Z,20.97
2018-07-31T02:33:06.878Z,22.13
2018-07-31T02:35:35.226Z,19.90
2018-07-31T02:38:03.590Z,20.83
2018-07-31T02:40:31.874Z,21.63
2018-07-31T02:43:00.254Z,19.73
2018-07-31T02:45:28.574Z,21.17
2018-07-31T02:47:56.886Z,20.17
2018-07-31T02:50:25.219Z,19.57
2018-07-31T02:52:53.541Z,20.03
2018-07-31T02:55:21.865Z,19.30
2018-07-31T02:57:50.196Z,19.47
2018-07-31T03:00:18.529Z,19.57
2018-07-31T03:02:46.973Z,19.90
2018-07-31T03:05:15.302Z,20.50
2018-07-31T03:07:43.627Z,21.20
2018-07-31T03:10:12.026Z,21.50
2018-07-31T03:12:40.362Z,22.83
2018-07-31T03:15:10.218Z,20.67
2018-07-31T03:17:38.677Z,22.27
2018-07-31T03:20:07.335Z,20.93
2018-07-31T03:22:35.785Z,25.20
2018-07-31T03:25:04.477Z,22.63
2018-07-31T03:27:32.866Z,22.10
2018-07-31T03:30:01.173Z,22.33
2018-07-31T03:32:29.518Z,22.93
2018-07-31T03:34:57.849Z,21.90
2018-07-31T03:37:26.156Z,22.63
2018-07-31T03:39:54.518Z,21.70
2018-07-31T03:42:22.831Z,21.20
2018-07-31T03:44:51.265Z,20.40
2018-07-31T03:47:19.606Z,20.77
2018-07-31T03:49:47.903Z,21.20
2018-07-31T03:52:17.139Z,22.03
2018-07-31T03:54:45.466Z,22.13
2018-07-31T03:57:13.792Z,20.60
2018-07-31T03:59:42.133Z,21.03
2018-07-31T04:02:10.527Z,20.30
2018-07-31T04:04:39.190Z,19.23
2018-07-31T04:07:07.529Z,23.63
2018-07-31T04:09:35.849Z,20.53
2018-07-31T04:12:04.236Z,20.83
2018-07-31T04:14:32.556Z,21.73
2018-07-31T04:17:00.937Z,26.03
2018-07-31T04:19:29.248Z,22.23
2018-07-31T04:21:57.528Z,24.57
2018-07-31T04:24:25.859Z,22.27
2018-07-31T04:26:54.147Z,21.77
2018-07-31T04:29:22.475Z,21.27
2018-07-31T04:31:50.794Z,24.27
2018-07-31T04:34:19.176Z,22.37
2018-07-31T04:36:47.483Z,25.30
2018-07-31T04:39:15.829Z,30.50
2018-07-31T04:41:44.367Z,26.60
2018-07-31T04:44:12.671Z,29.53
2018-07-31T04:46:40.949Z,27.77
2018-07-31T04:49:09.231Z,23.47
2018-07-31T04:51:37.551Z,23.73
2018-07-31T04:54:05.961Z,26.93
2018-07-31T04:56:34.252Z,26.10
2018-07-31T04:59:02.562Z,21.17
2018-07-31T05:01:30.934Z,29.90
2018-07-31T05:03:59.261Z,24.90
2018-07-31T05:06:27.599Z,22.67
2018-07-31T05:08:55.950Z,26.73
2018-07-31T05:11:24.263Z,23.87
2018-07-31T05:13:52.768Z,24.57
2018-07-31T05:16:27.728Z,20.17
2018-07-31T05:18:56.046Z,20.20
2018-07-31T05:21:24.412Z,20.70
2018-07-31T05:23:53.064Z,19.80
2018-07-31T05:26:21.382Z,17.53
2018-07-31T05:28:49.748Z,16.97
2018-07-31T05:31:18.090Z,17.93
2018-07-31T05:33:46.501Z,16.00
2018-07-31T05:36:14.840Z,16.53
2018-07-31T05:38:43.191Z,14.10
2018-07-31T05:41:11.570Z,14.87
2018-07-31T05:43:39.905Z,15.45
2018-07-31T05:46:08.338Z,15.48
2018-07-31T05:48:36.732Z,15.25
2018-07-31T05:51:05.103Z,13.83
2018-07-31T05:53:33.435Z,19.62
2018-07-31T05:56:02.131Z,17.92
2018-07-31T05:58:30.588Z,15.63
2018-07-31T06:00:58.974Z,14.73
2018-07-31T06:03:27.389Z,15.18
2018-07-31T06:05:55.784Z,14.15
2018-07-31T06:08:24.198Z,13.83
2018-07-31T06:10:52.815Z,15.20
2018-07-31T06:13:21.184Z,13.62
2018-07-31T06:15:49.542Z,17.98
2018-07-31T06:18:17.931Z,12.50
2018-07-31T06:20:46.309Z,19.25
2018-07-31T06:23:14.703Z,12.75
2018-07-31T06:25:43.153Z,17.10
2018-07-31T06:28:11.488Z,11.75
2018-07-31T06:30:39.828Z,12.18
2018-07-31T06:33:08.266Z,11.57
2018-07-31T06:35:36.644Z,11.25
2018-07-31T06:38:05.060Z,14.45
2018-07-31T06:40:33.515Z,13.05
2018-07-31T06:43:01.836Z,14.65
2018-07-31T06:45:30.166Z,14.58
2018-07-31T06:47:58.561Z,13.48
2018-07-31T06:50:26.913Z,11.17
2018-07-31T06:52:55.289Z,10.23
2018-07-31T06:55:23.697Z,11.07
2018-07-31T06:57:52.180Z,9.73
2018-07-31T07:00:20.544Z,13.07
2018-07-31T07:02:48.870Z,13.17
2018-07-31T07:05:17.199Z,13.13
2018-07-31T07:07:45.496Z,13.17
2018-07-31T07:10:13.843Z,13.30
2018-07-31T07:12:42.141Z,14.10
2018-07-31T07:15:10.458Z,11.17
2018-07-31T07:17:38.781Z,10.53
2018-07-31T07:20:07.266Z,10.70
2018-07-31T07:22:35.609Z,13.70
2018-07-31T07:25:03.930Z,11.33
2018-07-31T07:27:32.256Z,12.17
2018-07-31T07:30:00.522Z,12.40
2018-07-31T07:32:28.913Z,11.23
2018-07-31T07:34:57.213Z,10.23
2018-07-31T07:37:25.540Z,10.03
2018-07-31T07:39:53.823Z,12.40
2018-07-31T07:42:22.101Z,11.13
2018-07-31T07:44:50.527Z,11.57
2018-07-31T07:47:18.736Z,15.20
2018-07-31T07:49:46.966Z,9.80
2018-07-31T07:52:15.221Z,10.03
2018-07-31T07:54:43.536Z,12.60
2018-07-31T07:57:11.792Z,9.23
2018-07-31T07:59:41.063Z,10.13
2018-07-31T08:02:09.296Z,9.07
2018-07-31T08:04:37.518Z,9.00
2018-07-31T08:07:05.965Z,13.10
2018-07-31T08:09:34.220Z,15.17
2018-07-31T08:12:02.475Z,10.60
2018-07-31T08:14:30.719Z,11.53
2018-07-31T08:16:58.947Z,9.83
2018-07-31T08:19:27.178Z,12.43
2018-07-31T08:21:55.400Z,10.60
2018-07-31T08:24:23.676Z,11.20
2018-07-31T08:26:52.365Z,11.43
2018-07-31T08:29:20.663Z,10.53
2018-07-31T08:31:48.931Z,12.00
2018-07-31T08:34:17.190Z,10.70
2018-07-31T08:36:45.516Z,10.53
2018-07-31T08:39:13.757Z,11.80
2018-07-31T08:41:42.056Z,11.73
2018-07-31T08:44:10.293Z,13.50
2018-07-31T08:46:38.534Z,11.97
2018-07-31T08:49:06.810Z,10.67
2018-07-31T08:51:35.049Z,17.07
2018-07-31T08:54:03.296Z,11.53
2018-07-31T08:56:31.595Z,12.03
2018-07-31T08:58:59.948Z,12.77
2018-07-31T09:01:28.200Z,11.23
2018-07-31T09:03:56.439Z,17.27
2018-07-31T09:06:24.708Z,13.27
2018-07-31T09:08:53.116Z,10.37
2018-07-31T09:11:21.378Z,12.30
2018-07-31T09:13:49.615Z,11.50
2018-07-31T09:16:17.883Z,13.57
2018-07-31T09:18:46.108Z,11.00
2018-07-31T09:21:14.367Z,11.30
2018-07-31T09:23:42.584Z,15.07
2018-07-31T09:26:10.804Z,11.93
2018-07-31T09:28:39.032Z,9.38
2018-07-31T09:31:12.332Z,10.77
2018-07-31T09:33:40.839Z,13.80
2018-07-31T09:36:09.113Z,11.67
2018-07-31T09:38:37.359Z,11.57
2018-07-31T09:41:05.639Z,12.65
2018-07-31T09:43:33.864Z,12.55
2018-07-31T09:46:02.143Z,15.20
2018-07-31T09:48:30.409Z,10.40
2018-07-31T09:50:58.706Z,13.40
2018-07-31T09:53:26.944Z,11.00
2018-07-31T09:55:55.220Z,9.88
2018-07-31T09:58:23.484Z,11.83
2018-07-31T10:00:57.227Z,9.90
2018-07-31T10:03:25.544Z,9.03
2018-07-31T10:05:53.955Z,10.18
2018-07-31T10:08:23.060Z,10.33
2018-07-31T10:10:53.145Z,10.40
2018-07-31T10:13:21.414Z,9.45
2018-07-31T10:15:49.862Z,11.48
2018-07-31T10:18:18.200Z,10.68
2018-07-31T10:20:46.406Z,11.63
2018-07-31T10:23:14.666Z,12.35
2018-07-31T10:25:42.905Z,9.55
2018-07-31T10:28:11.397Z,12.13
2018-07-31T10:30:40.033Z,11.20
2018-07-31T10:33:08.637Z,13.05
2018-07-31T10:35:37.327Z,13.32
2018-07-31T10:38:05.636Z,14.38
2018-07-31T10:40:33.929Z,8.95
2018-07-31T10:43:02.148Z,12.05
2018-07-31T10:45:30.448Z,12.18
2018-07-31T10:47:58.751Z,9.63
2018-07-31T10:50:26.980Z,12.90
2018-07-31T10:52:55.231Z,12.58
2018-07-31T10:55:23.475Z,9.48
2018-07-31T10:57:51.787Z,9.15
2018-07-31T11:00:20.065Z,10.53
2018-07-31T11:02:48.409Z,13.10
2018-07-31T11:05:16.609Z,15.80
2018-07-31T11:07:44.940Z,13.05
2018-07-31T11:10:13.214Z,9.95
2018-07-31T11:12:41.529Z,13.48
2018-07-31T11:15:09.794Z,11.85
2018-07-31T11:17:38.031Z,9.75
2018-07-31T11:20:06.396Z,10.48
2018-07-31T11:22:34.672Z,14.53
2018-07-31T11:25:02.899Z,12.70
2018-07-31T11:27:31.168Z,11.08
2018-07-31T11:29:59.421Z,14.20
2018-07-31T11:32:27.704Z,10.63
2018-07-31T11:34:55.934Z,8.70
2018-07-31T11:37:24.188Z,10.05
2018-07-31T11:39:52.755Z,8.60
2018-07-31T11:42:21.012Z,10.05
2018-07-31T11:44:49.277Z,11.33
2018-07-31T11:47:17.641Z,12.98
2018-07-31T11:49:45.917Z,11.05
2018-07-31T11:52:14.207Z,11.63
2018-07-31T11:54:42.444Z,13.68
2018-07-31T11:57:10.685Z,12.35
2018-07-31T11:59:38.981Z,11.78
2018-07-31T12:02:07.589Z,12.37
2018-07-31T12:04:35.869Z,15.43
2018-07-31T12:07:04.152Z,11.03
2018-07-31T12:09:32.438Z,10.95
2018-07-31T12:12:00.717Z,10.58
2018-07-31T12:14:29.158Z,10.30
2018-07-31T12:16:57.436Z,8.78
2018-07-31T12:19:25.692Z,9.88
2018-07-31T12:21:54.175Z,8.38
2018-07-31T12:24:22.417Z,13.85
2018-07-31T12:26:50.709Z,11.38
2018-07-31T12:29:18.941Z,15.18
2018-07-31T12:31:47.258Z,11.80
2018-07-31T12:34:15.505Z,7.65
2018-07-31T12:36:43.876Z,11.85
2018-07-31T12:39:12.796Z,13.72
2018-07-31T12:41:41.165Z,11.70
2018-07-31T12:44:09.526Z,12.37
2018-07-31T12:46:38.160Z,16.85
2018-07-31T12:49:06.693Z,8.75
2018-07-31T12:51:35.046Z,8.08
2018-07-31T12:54:03.372Z,9.45
2018-07-31T12:56:31.637Z,8.58
2018-07-31T12:58:59.880Z,10.18
2018-07-31T13:01:28.147Z,8.73
2018-07-31T13:03:56.385Z,12.47
2018-07-31T13:06:24.624Z,9.98
2018-07-31T13:08:52.960Z,8.60
2018-07-31T13:11:21.257Z,6.70
2018-07-31T13:13:49.506Z,6.90
2018-07-31T13:16:17.716Z,8.60
2018-07-31T13:18:45.945Z,9.13
2018-07-31T13:21:14.188Z,9.40
2018-07-31T13:23:42.396Z,7.72
2018-07-31T13:26:10.842Z,8.15
2018-07-31T13:28:39.125Z,8.00
2018-07-31T13:31:07.397Z,9.83
2018-07-31T13:33:35.625Z,8.93
2018-07-31T13:36:03.884Z,8.28
2018-07-31T13:38:32.157Z,9.83
2018-07-31T13:41:00.478Z,10.93
2018-07-31T13:43:28.780Z,5.53
2018-07-31T13:45:57.019Z,8.03
2018-07-31T13:48:25.263Z,8.08
2018-07-31T13:50:53.670Z,6.60
2018-07-31T13:53:21.920Z,7.62
2018-07-31T13:55:50.197Z,8.65
2018-07-31T13:58:18.479Z,5.65
2018-07-31T14:00:46.708Z,10.10
2018-07-31T14:03:14.979Z,7.85
2018-07-31T14:05:43.204Z,9.53
2018-07-31T14:08:11.468Z,8.83
2018-07-31T14:10:39.720Z,9.53
2018-07-31T14:13:08.105Z,5.95
2018-07-31T14:15:36.379Z,8.48
2018-07-31T14:18:04.648Z,8.98
2018-07-31T14:20:33.000Z,7.78
2018-07-31T14:23:01.313Z,10.95
2018-07-31T14:25:29.628Z,16.23
2018-07-31T14:27:58.007Z,8.38
2018-07-31T14:30:26.283Z,10.08
2018-07-31T14:32:54.564Z,6.62
2018-07-31T14:35:22.864Z,12.55
2018-07-31T14:37:51.318Z,11.53
2018-07-31T14:40:19.539Z,8.00
2018-07-31T14:42:47.807Z,12.53
2018-07-31T14:45:16.127Z,11.03
2018-07-31T14:47:44.448Z,11.33
2018-07-31T14:50:12.761Z,9.58
2018-07-31T14:52:41.017Z,10.43
2018-07-31T14:55:09.486Z,10.35
2018-07-31T14:57:37.751Z,6.60
2018-07-31T15:00:06.494Z,11.57
2018-07-31T15:02:35.046Z,8.30
2018-07-31T15:05:03.453Z,7.08
2018-07-31T15:07:31.737Z,11.05
2018-07-31T15:10:00.110Z,10.58
2018-07-31T15:12:28.419Z,10.70
2018-07-31T15:14:56.841Z,7.12
2018-07-31T15:17:25.101Z,8.03
2018-07-31T15:19:53.767Z,11.48
2018-07-31T15:22:22.042Z,12.33
2018-07-31T15:24:50.294Z,8.25
2018-07-31T15:27:18.555Z,11.00
2018-07-31T15:29:46.835Z,8.93
2018-07-31T15:32:15.089Z,9.80
2018-07-31T15:34:43.415Z,11.00
2018-07-31T15:37:11.688Z,13.50
2018-07-31T15:39:39.947Z,12.45
2018-07-31T15:42:08.255Z,13.32
2018-07-31T15:44:36.646Z,12.23
2018-07-31T15:47:04.937Z,10.55
2018-07-31T15:49:33.265Z,16.05
2018-07-31T15:52:01.524Z,9.48
2018-07-31T15:54:29.832Z,11.85
2018-07-31T15:56:58.112Z,9.93
2018-07-31T15:59:26.429Z,11.63
2018-07-31T16:01:54.715Z,8.83
2018-07-31T16:04:22.980Z,13.62
2018-07-31T16:06:51.267Z,12.23
2018-07-31T16:09:19.573Z,10.80
2018-07-31T16:11:47.919Z,11.15
2018-07-31T16:14:16.156Z,14.03
2018-07-31T16:16:44.474Z,9.15
2018-07-31T16:19:12.739Z,10.25
2018-07-31T16:21:41.042Z,7.58
2018-07-31T16:24:09.337Z,8.55
2018-07-31T16:26:37.750Z,7.03
2018-07-31T16:29:06.019Z,12.53
2018-07-31T16:31:34.257Z,9.83
2018-07-31T16:34:02.575Z,8.90
2018-07-31T16:36:30.811Z,10.65
2018-07-31T16:38:59.057Z,9.93
2018-07-31T16:41:28.351Z,9.48
2018-07-31T16:43:57.665Z,12.68
2018-07-31T16:46:25.966Z,7.22
2018-07-31T16:48:54.377Z,9.00
2018-07-31T16:51:22.667Z,6.85
2018-07-31T16:53:50.925Z,10.72
2018-07-31T16:56:19.223Z,10.82
2018-07-31T16:58:47.509Z,9.68
2018-07-31T17:01:15.780Z,10.13
2018-07-31T17:03:44.119Z,7.12
2018-07-31T17:06:12.405Z,11.48
2018-07-31T17:08:40.738Z,9.88
2018-07-31T17:11:09.043Z,11.93
2018-07-31T17:13:37.320Z,10.13
2018-07-31T17:16:05.653Z,10.72
2018-07-31T17:18:33.886Z,9.78
2018-07-31T17:21:02.207Z,10.00
2018-07-31T17:23:30.561Z,9.68
2018-07-31T17:25:58.820Z,10.53
2018-07-31T17:28:27.588Z,9.18
2018-07-31T17:30:55.827Z,16.50
2018-07-31T17:33:24.039Z,17.05
2018-07-31T17:35:52.440Z,15.18
2018-07-31T17:38:20.663Z,12.60
2018-07-31T17:40:50.376Z,9.85
2018-07-31T17:43:19.553Z,10.38
2018-07-31T17:45:47.811Z,8.98
2018-07-31T17:48:16.211Z,11.50
2018-07-31T17:50:44.836Z,11.33
2018-07-31T17:53:13.123Z,9.10
2018-07-31T17:55:41.603Z,11.38
2018-07-31T17:58:09.824Z,11.57
2018-07-31T18:00:38.051Z,8.10
2018-07-31T18:03:06.301Z,11.10
2018-07-31T18:05:34.522Z,13.57
2018-07-31T18:08:02.711Z,12.70
2018-07-31T18:10:31.008Z,14.90
2018-07-31T18:12:59.243Z,15.30
2018-07-31T18:15:27.484Z,13.87
2018-07-31T18:17:55.727Z,11.17
2018-07-31T18:20:23.979Z,12.10
2018-07-31T18:22:52.632Z,13.17
2018-07-31T18:25:20.856Z,15.57
2018-07-31T18:27:49.187Z,13.97
2018-07-31T18:30:17.477Z,12.33
2018-07-31T18:32:45.712Z,14.03
2018-07-31T18:35:13.944Z,10.97
2018-07-31T18:37:42.175Z,15.07
2018-07-31T18:40:10.400Z,12.10
2018-07-31T18:42:38.631Z,12.37
2018-07-31T18:45:06.839Z,14.17
2018-07-31T18:50:10.881Z,9.47
2018-07-31T18:52:39.124Z,13.40
2018-07-31T18:55:07.354Z,11.97
2018-07-31T18:57:35.626Z,12.23
2018-07-31T19:00:06.280Z,12.07
2018-07-31T19:02:34.528Z,11.63
2018-07-31T19:05:02.753Z,12.57
2018-07-31T19:07:30.982Z,12.00
2018-07-31T19:09:59.721Z,12.77
2018-07-31T19:12:27.928Z,12.83
2018-07-31T19:14:56.528Z,16.93
2018-07-31T19:17:24.859Z,14.10
2018-07-31T19:19:54.356Z,13.27
2018-07-31T19:22:22.647Z,13.90
2018-07-31T19:24:51.636Z,14.00
2018-07-31T19:27:19.850Z,16.90
2018-07-31T19:29:48.197Z,11.47
2018-07-31T19:32:16.484Z,15.37
2018-07-31T19:34:44.736Z,11.60
2018-07-31T19:37:12.979Z,13.20
2018-07-31T19:39:41.259Z,13.20
2018-07-31T19:42:09.506Z,12.17
2018-07-31T19:44:37.767Z,14.80
2018-07-31T19:47:05.976Z,16.00
2018-07-31T19:49:34.188Z,12.93
2018-07-31T19:52:02.621Z,11.60
2018-07-31T19:54:30.868Z,16.13
2018-07-31T19:57:02.872Z,10.70
2018-07-31T19:59:31.175Z,11.30
2018-07-31T20:01:59.402Z,13.67
2018-07-31T20:04:27.839Z,11.03
2018-07-31T20:06:56.103Z,12.80
2018-07-31T20:09:27.634Z,12.70
2018-07-31T20:11:57.099Z,11.17
2018-07-31T20:14:25.909Z,11.20
2018-07-31T20:16:54.532Z,16.40
2018-07-31T20:19:23.083Z,11.47
2018-07-31T20:21:51.577Z,10.87
2018-07-31T20:24:19.882Z,12.30
2018-07-31T20:26:48.799Z,11.53
2018-07-31T20:29:17.039Z,13.83
2018-07-31T20:31:45.304Z,10.63
2018-07-31T20:34:13.540Z,12.40
2018-07-31T20:36:41.772Z,16.57
2018-07-31T20:39:10.856Z,11.57
2018-07-31T20:41:39.924Z,12.67
2018-07-31T20:44:09.071Z,11.37
2018-07-31T20:46:37.307Z,11.57
2018-07-31T20:49:06.904Z,13.43
2018-07-31T20:51:35.166Z,12.53
2018-07-31T20:54:03.369Z,14.87
2018-07-31T20:56:31.612Z,14.17
2018-07-31T20:58:59.943Z,13.73
2018-07-31T21:01:28.180Z,15.93
2018-07-31T21:03:56.503Z,13.73
2018-07-31T21:06:24.816Z,15.60
2018-07-31T21:08:53.184Z,19.57
2018-07-31T21:11:21.536Z,14.00
2018-07-31T21:13:49.767Z,18.73
2018-07-31T21:16:17.979Z,11.60
2018-07-31T21:18:46.198Z,14.93
2018-07-31T21:21:14.411Z,14.20
2018-07-31T21:23:42.741Z,13.37
2018-07-31T21:26:10.945Z,13.87
2018-07-31T21:28:39.201Z,14.00
2018-07-31T21:31:07.424Z,15.37
2018-07-31T21:33:35.630Z,14.27
2018-07-31T21:36:04.014Z,12.90
2018-07-31T21:38:32.322Z,15.40
2018-07-31T21:41:00.607Z,15.23
2018-07-31T21:43:28.829Z,15.10
2018-07-31T21:45:57.030Z,12.87
2018-07-31T21:48:25.240Z,10.60
2018-07-31T21:50:53.615Z,13.77
2018-07-31T21:53:22.321Z,13.57
2018-07-31T21:55:50.515Z,13.23
2018-07-31T21:58:18.892Z,13.23
2018-07-31T22:00:52.959Z,13.90
2018-07-31T22:03:21.203Z,11.93
2018-07-31T22:05:49.465Z,12.30
2018-07-31T22:08:17.634Z,11.20
2018-07-31T22:10:45.931Z,12.53
2018-07-31T22:13:14.469Z,11.67
2018-07-31T22:15:43.448Z,14.63
2018-07-31T22:18:11.709Z,15.83
2018-07-31T22:20:40.686Z,12.97
2018-07-31T22:23:08.970Z,12.60
2018-07-31T22:25:37.235Z,16.47
2018-07-31T22:28:05.440Z,12.77
2018-07-31T22:30:33.708Z,11.40
2018-07-31T22:33:01.916Z,12.37
2018-07-31T22:35:30.174Z,13.33
2018-07-31T22:37:58.433Z,14.70
2018-07-31T22:40:26.791Z,13.20
2018-07-31T22:42:55.591Z,13.33
2018-07-31T22:45:23.883Z,15.67
2018-07-31T22:47:52.312Z,16.30
2018-07-31T22:50:20.632Z,14.60
2018-07-31T22:52:48.856Z,14.43
2018-07-31T22:55:17.059Z,15.50
2018-07-31T22:57:45.323Z,13.63
2018-07-31T23:00:13.805Z,17.90
2018-07-31T23:02:42.115Z,14.77
2018-07-31T23:05:11.954Z,15.83
2018-07-31T23:07:40.337Z,15.93
2018-07-31T23:10:08.686Z,17.00
2018-07-31T23:12:37.012Z,16.87
2018-07-31T23:15:05.814Z,14.80
2018-07-31T23:17:34.117Z,14.77
2018-07-31T23:20:03.866Z,16.07
2018-07-31T23:22:40.862Z,19.83
2018-07-31T23:25:09.376Z,15.03
2018-07-31T23:27:38.255Z,18.07
2018-07-31T23:30:07.091Z,16.93
2018-07-31T23:32:35.926Z,15.50
2018-07-31T23:35:04.317Z,15.13
2018-07-31T23:37:32.736Z,18.13
2018-07-31T23:40:02.165Z,15.00
2018-07-31T23:42:31.200Z,15.10
2018-07-31T23:44:59.743Z,18.67
2018-07-31T23:47:29.308Z,15.57
2018-07-31T23:49:58.612Z,18.93
2018-07-31T23:52:27.165Z,14.93
2018-07-31T23:54:55.573Z,15.00
2018-07-31T23:57:24.014Z,15.23
2018-07-31T23:59:53.352Z,16.53
